sensor_id;sensor_type;location;lat;lon;timestamp;pressure;altitude;pressure_sealevel;temperature;humidity
70229;BME280;57617;51.988;5.854;2023-09-19T00:02:08;100233.03;;;19.51;62.83
70229;BME280;57617;51.988;5.854;2023-09-19T00:04:34;100239.84;;;19.53;63.00
70229;BME280;57617;51.988;5.854;2023-09-19T00:06:59;100248.59;;;19.55;62.83
70229;BME280;57617;51.988;5.854;2023-09-19T00:09:27;100243.44;;;19.54;62.74
70229;BME280;57617;51.988;5.854;2023-09-19T00:11:53;100251.81;;;19.49;63.14
70229;BME280;57617;51.988;5.854;2023-09-19T00:14:19;100259.75;;;19.50;63.13
70229;BME280;57617;51.988;5.854;2023-09-19T00:16:44;100253.44;;;19.50;63.01
70229;BME280;57617;51.988;5.854;2023-09-19T00:19:11;100264.91;;;19.43;63.11
70229;BME280;57617;51.988;5.854;2023-09-19T00:21:36;100261.31;;;19.43;63.32
70229;BME280;57617;51.988;5.854;2023-09-19T00:24:04;100269.91;;;19.41;63.19
70229;BME280;57617;51.988;5.854;2023-09-19T00:26:31;100275.72;;;19.40;63.69
70229;BME280;57617;51.988;5.854;2023-09-19T00:28:57;100271.84;;;19.41;63.63
70229;BME280;57617;51.988;5.854;2023-09-19T00:31:22;100280.28;;;19.44;63.61
70229;BME280;57617;51.988;5.854;2023-09-19T00:33:48;100275.44;;;19.41;63.80
70229;BME280;57617;51.988;5.854;2023-09-19T00:36:14;100271.34;;;19.39;63.94
70229;BME280;57617;51.988;5.854;2023-09-19T00:38:39;100279.28;;;19.40;64.09
70229;BME280;57617;51.988;5.854;2023-09-19T00:41:04;100274.59;;;19.41;64.17
70229;BME280;57617;51.988;5.854;2023-09-19T00:43:29;100275.72;;;19.40;64.45
70229;BME280;57617;51.988;5.854;2023-09-19T00:45:59;100276.16;;;19.33;64.50
70229;BME280;57617;51.988;5.854;2023-09-19T00:48:26;100287.34;;;19.37;64.60
70229;BME280;57617;51.988;5.854;2023-09-19T00:50:53;100288.06;;;19.42;64.54
70229;BME280;57617;51.988;5.854;2023-09-19T00:53:21;100295.63;;;19.37;65.02
70229;BME280;57617;51.988;5.854;2023-09-19T00:55:49;100298.38;;;19.37;64.92
70229;BME280;57617;51.988;5.854;2023-09-19T00:58:17;100290.53;;;19.30;64.98
70229;BME280;57617;51.988;5.854;2023-09-19T01:00:43;100299.81;;;19.34;65.02
70229;BME280;57617;51.988;5.854;2023-09-19T01:03:10;100303.28;;;19.40;65.22
70229;BME280;57617;51.988;5.854;2023-09-19T01:05:35;100304.41;;;19.39;65.09
70229;BME280;57617;51.988;5.854;2023-09-19T01:08:01;100301.00;;;19.42;65.03
70229;BME280;57617;51.988;5.854;2023-09-19T01:10:26;100297.94;;;19.43;65.05
70229;BME280;57617;51.988;5.854;2023-09-19T01:13:16;100306.41;;;19.47;65.50
70229;BME280;57617;51.988;5.854;2023-09-19T01:16:09;100300.09;;;19.46;65.54
70229;BME280;57617;51.988;5.854;2023-09-19T01:21:21;100308.16;;;19.43;65.27
70229;BME280;57617;51.988;5.854;2023-09-19T01:24:16;100304.06;;;19.40;65.64
70229;BME280;57617;51.988;5.854;2023-09-19T01:29:46;100301.31;;;19.40;65.36
70229;BME280;57617;51.988;5.854;2023-09-19T01:32:16;100310.59;;;19.44;65.31
70229;BME280;57617;51.988;5.854;2023-09-19T01:34:54;100309.81;;;19.44;65.50
70229;BME280;57617;51.988;5.854;2023-09-19T01:37:23;100314.00;;;19.41;65.22
70229;BME280;57617;51.988;5.854;2023-09-19T01:40:03;100314.09;;;19.36;65.18
70229;BME280;57617;51.988;5.854;2023-09-19T01:43:05;100321.72;;;19.39;65.47
70229;BME280;57617;51.988;5.854;2023-09-19T01:48:07;100327.66;;;19.33;65.39
70229;BME280;57617;51.988;5.854;2023-09-19T01:50:45;100326.03;;;19.32;65.06
70229;BME280;57617;51.988;5.854;2023-09-19T01:53:23;100323.41;;;19.27;64.82
70229;BME280;57617;51.988;5.854;2023-09-19T01:55:51;100326.16;;;19.27;64.82
70229;BME280;57617;51.988;5.854;2023-09-19T01:58:21;100318.41;;;19.29;64.93
70229;BME280;57617;51.988;5.854;2023-09-19T02:00:52;100329.00;;;19.22;64.81
70229;BME280;57617;51.988;5.854;2023-09-19T02:03:21;100324.91;;;19.19;64.47
70229;BME280;57617;51.988;5.854;2023-09-19T02:05:50;100323.91;;;19.15;64.68
70229;BME280;57617;51.988;5.854;2023-09-19T02:08:18;100332.06;;;19.07;64.43
70229;BME280;57617;51.988;5.854;2023-09-19T02:10:44;100336.34;;;18.99;64.53
70229;BME280;57617;51.988;5.854;2023-09-19T02:13:15;100337.38;;;19.03;64.49
70229;BME280;57617;51.988;5.854;2023-09-19T02:15:42;100344.13;;;18.97;64.15
70229;BME280;57617;51.988;5.854;2023-09-19T02:18:09;100346.88;;;18.97;64.16
70229;BME280;57617;51.988;5.854;2023-09-19T02:20:34;100346.03;;;18.97;64.04
70229;BME280;57617;51.988;5.854;2023-09-19T02:22:59;100348.00;;;18.96;63.92
70229;BME280;57617;51.988;5.854;2023-09-19T02:25:25;100340.66;;;18.92;64.03
70229;BME280;57617;51.988;5.854;2023-09-19T02:27:52;100336.47;;;18.94;63.87
70229;BME280;57617;51.988;5.854;2023-09-19T02:30:19;100346.69;;;18.94;63.88
70229;BME280;57617;51.988;5.854;2023-09-19T02:32:46;100341.28;;;18.89;63.58
70229;BME280;57617;51.988;5.854;2023-09-19T02:35:11;100333.31;;;18.74;63.63
70229;BME280;57617;51.988;5.854;2023-09-19T02:37:37;100338.63;;;18.70;63.69
70229;BME280;57617;51.988;5.854;2023-09-19T02:40:03;100348.81;;;18.70;63.75
70229;BME280;57617;51.988;5.854;2023-09-19T02:42:31;100349.53;;;18.62;63.30
70229;BME280;57617;51.988;5.854;2023-09-19T02:44:56;100351.97;;;18.63;63.14
70229;BME280;57617;51.988;5.854;2023-09-19T02:47:21;100348.91;;;18.65;63.10
70229;BME280;57617;51.988;5.854;2023-09-19T02:49:47;100354.31;;;18.70;63.45
70229;BME280;57617;51.988;5.854;2023-09-19T02:52:13;100347.78;;;18.66;62.80
70229;BME280;57617;51.988;5.854;2023-09-19T02:54:39;100353.81;;;18.68;63.18
70229;BME280;57617;51.988;5.854;2023-09-19T02:57:05;100350.34;;;18.62;62.90
70229;BME280;57617;51.988;5.854;2023-09-19T02:59:32;100349.63;;;18.57;62.92
70229;BME280;57617;51.988;5.854;2023-09-19T03:01:57;100350.13;;;18.59;62.91
70229;BME280;57617;51.988;5.854;2023-09-19T03:04:23;100356.13;;;18.61;62.82
70229;BME280;57617;51.988;5.854;2023-09-19T03:06:48;100350.97;;;18.59;62.92
70229;BME280;57617;51.988;5.854;2023-09-19T03:09:16;100364.09;;;18.62;62.82
70229;BME280;57617;51.988;5.854;2023-09-19T03:11:42;100374.06;;;18.58;62.70
70229;BME280;57617;51.988;5.854;2023-09-19T03:14:07;100368.16;;;18.51;62.10
70229;BME280;57617;51.988;5.854;2023-09-19T03:16:33;100366.09;;;18.43;62.43
70229;BME280;57617;51.988;5.854;2023-09-19T03:18:58;100362.00;;;18.41;62.54
70229;BME280;57617;51.988;5.854;2023-09-19T03:21:25;100359.88;;;18.38;62.73
70229;BME280;57617;51.988;5.854;2023-09-19T03:23:50;100364.06;;;18.35;62.28
70229;BME280;57617;51.988;5.854;2023-09-19T03:26:16;100362.28;;;18.26;62.23
70229;BME280;57617;51.988;5.854;2023-09-19T03:28:41;100362.38;;;18.21;62.27
70229;BME280;57617;51.988;5.854;2023-09-19T03:31:08;100365.63;;;18.23;62.50
70229;BME280;57617;51.988;5.854;2023-09-19T03:33:34;100357.09;;;18.24;61.86
70229;BME280;57617;51.988;5.854;2023-09-19T03:36:00;100351.66;;;18.19;61.75
70229;BME280;57617;51.988;5.854;2023-09-19T03:38:26;100358.06;;;18.14;61.71
70229;BME280;57617;51.988;5.854;2023-09-19T03:40:52;100352.34;;;18.11;61.80
70229;BME280;57617;51.988;5.854;2023-09-19T03:43:18;100347.84;;;18.02;61.62
70229;BME280;57617;51.988;5.854;2023-09-19T03:45:44;100362.63;;;18.06;61.70
70229;BME280;57617;51.988;5.854;2023-09-19T03:48:10;100368.72;;;18.02;61.56
70229;BME280;57617;51.988;5.854;2023-09-19T03:50:35;100353.34;;;18.02;61.65
70229;BME280;57617;51.988;5.854;2023-09-19T03:53:01;100360.47;;;18.02;61.60
70229;BME280;57617;51.988;5.854;2023-09-19T03:55:27;100350.06;;;17.99;61.54
70229;BME280;57617;51.988;5.854;2023-09-19T03:57:52;100348.44;;;17.98;61.41
70229;BME280;57617;51.988;5.854;2023-09-19T04:00:18;100358.94;;;17.97;61.29
70229;BME280;57617;51.988;5.854;2023-09-19T04:02:46;100346.81;;;17.98;60.94
70229;BME280;57617;51.988;5.854;2023-09-19T04:05:11;100343.09;;;17.88;61.08
70229;BME280;57617;51.988;5.854;2023-09-19T04:07:37;100357.59;;;17.94;60.81
70229;BME280;57617;51.988;5.854;2023-09-19T04:10:02;100353.22;;;17.93;61.14
70229;BME280;57617;51.988;5.854;2023-09-19T04:12:28;100349.66;;;17.92;60.58
70229;BME280;57617;51.988;5.854;2023-09-19T04:14:53;100362.44;;;17.83;60.66
70229;BME280;57617;51.988;5.854;2023-09-19T04:17:19;100365.50;;;17.82;60.97
70229;BME280;57617;51.988;5.854;2023-09-19T04:19:44;100373.88;;;17.91;61.11
70229;BME280;57617;51.988;5.854;2023-09-19T04:22:10;100358.66;;;17.80;60.67
70229;BME280;57617;51.988;5.854;2023-09-19T04:24:36;100378.47;;;17.95;60.72
70229;BME280;57617;51.988;5.854;2023-09-19T04:27:03;100394.72;;;17.92;60.58
70229;BME280;57617;51.988;5.854;2023-09-19T04:29:28;100401.94;;;17.88;60.54
70229;BME280;57617;51.988;5.854;2023-09-19T04:31:54;100404.84;;;17.77;60.56
70229;BME280;57617;51.988;5.854;2023-09-19T04:34:19;100407.94;;;17.71;60.62
70229;BME280;57617;51.988;5.854;2023-09-19T04:36:45;100410.78;;;17.66;60.40
70229;BME280;57617;51.988;5.854;2023-09-19T04:39:10;100416.88;;;17.63;60.66
70229;BME280;57617;51.988;5.854;2023-09-19T04:41:38;100415.31;;;17.57;60.64
70229;BME280;57617;51.988;5.854;2023-09-19T04:44:07;100415.25;;;17.62;60.64
70229;BME280;57617;51.988;5.854;2023-09-19T04:46:35;100419.34;;;17.65;60.51
70229;BME280;57617;51.988;5.854;2023-09-19T04:49:00;100425.69;;;17.60;60.55
70229;BME280;57617;51.988;5.854;2023-09-19T04:51:26;100430.91;;;17.62;60.64
70229;BME280;57617;51.988;5.854;2023-09-19T04:53:54;100425.69;;;17.60;60.64
70229;BME280;57617;51.988;5.854;2023-09-19T04:56:19;100431.13;;;17.65;60.60
70229;BME280;57617;51.988;5.854;2023-09-19T04:58:46;100438.84;;;17.63;60.43
70229;BME280;57617;51.988;5.854;2023-09-19T05:01:11;100439.66;;;17.63;60.51
70229;BME280;57617;51.988;5.854;2023-09-19T05:03:40;100434.78;;;17.61;60.58
70229;BME280;57617;51.988;5.854;2023-09-19T05:06:05;100438.84;;;17.63;60.52
70229;BME280;57617;51.988;5.854;2023-09-19T05:08:30;100429.19;;;17.66;60.45
70229;BME280;57617;51.988;5.854;2023-09-19T05:10:56;100430.63;;;17.63;60.40
70229;BME280;57617;51.988;5.854;2023-09-19T05:13:21;100417.69;;;17.63;60.47
70229;BME280;57617;51.988;5.854;2023-09-19T05:15:48;100420.59;;;17.72;60.44
70229;BME280;57617;51.988;5.854;2023-09-19T05:18:15;100419.56;;;17.68;60.33
70229;BME280;57617;51.988;5.854;2023-09-19T05:20:40;100430.00;;;17.66;60.44
70229;BME280;57617;51.988;5.854;2023-09-19T05:23:06;100429.56;;;17.59;60.58
70229;BME280;57617;51.988;5.854;2023-09-19T05:25:37;100430.31;;;17.65;60.75
70229;BME280;57617;51.988;5.854;2023-09-19T05:28:03;100435.75;;;17.70;60.50
70229;BME280;57617;51.988;5.854;2023-09-19T05:30:29;100431.88;;;17.71;60.69
70229;BME280;57617;51.988;5.854;2023-09-19T05:32:54;100427.50;;;17.70;60.50
70229;BME280;57617;51.988;5.854;2023-09-19T05:35:20;100424.81;;;17.65;60.65
70229;BME280;57617;51.988;5.854;2023-09-19T05:37:47;100425.25;;;17.72;60.77
70229;BME280;57617;51.988;5.854;2023-09-19T05:40:16;100432.38;;;17.73;60.61
70229;BME280;57617;51.988;5.854;2023-09-19T05:42:41;100442.78;;;17.76;60.58
70229;BME280;57617;51.988;5.854;2023-09-19T05:45:09;100434.25;;;17.77;60.59
70229;BME280;57617;51.988;5.854;2023-09-19T05:47:37;100442.03;;;17.70;60.40
70229;BME280;57617;51.988;5.854;2023-09-19T05:50:03;100443.38;;;17.73;60.99
70229;BME280;57617;51.988;5.854;2023-09-19T05:52:28;100435.59;;;17.80;60.86
70229;BME280;57617;51.988;5.854;2023-09-19T05:54:54;100431.44;;;17.82;60.57
70229;BME280;57617;51.988;5.854;2023-09-19T05:57:19;100430.31;;;17.83;60.79
70229;BME280;57617;51.988;5.854;2023-09-19T05:59:45;100426.81;;;17.77;60.89
70229;BME280;57617;51.988;5.854;2023-09-19T06:02:10;100437.53;;;17.79;60.80
70229;BME280;57617;51.988;5.854;2023-09-19T06:04:37;100435.59;;;17.80;61.11
70229;BME280;57617;51.988;5.854;2023-09-19T06:07:06;100438.34;;;17.80;61.03
70229;BME280;57617;51.988;5.854;2023-09-19T06:09:31;100445.41;;;17.86;61.16
70229;BME280;57617;51.988;5.854;2023-09-19T06:11:57;100450.59;;;17.87;60.80
70229;BME280;57617;51.988;5.854;2023-09-19T06:14:22;100447.03;;;17.87;60.80
70229;BME280;57617;51.988;5.854;2023-09-19T06:16:49;100449.41;;;17.93;61.38
70229;BME280;57617;51.988;5.854;2023-09-19T06:19:15;100445.31;;;17.91;61.05
70229;BME280;57617;51.988;5.854;2023-09-19T06:21:40;100448.88;;;17.91;61.39
70229;BME280;57617;51.988;5.854;2023-09-19T06:24:06;100452.75;;;17.90;61.30
70229;BME280;57617;51.988;5.854;2023-09-19T06:26:32;100449.47;;;17.88;61.51
70229;BME280;57617;51.988;5.854;2023-09-19T06:28:57;100458.53;;;17.88;61.49
70229;BME280;57617;51.988;5.854;2023-09-19T06:31:23;100452.22;;;17.88;61.13
70229;BME280;57617;51.988;5.854;2023-09-19T06:33:51;100460.41;;;17.93;61.64
70229;BME280;57617;51.988;5.854;2023-09-19T06:36:17;100473.09;;;17.89;61.89
70229;BME280;57617;51.988;5.854;2023-09-19T06:38:42;100460.53;;;17.83;61.72
70229;BME280;57617;51.988;5.854;2023-09-19T06:41:08;100485.66;;;17.95;61.77
70229;BME280;57617;51.988;5.854;2023-09-19T06:43:34;100473.25;;;17.98;61.87
70229;BME280;57617;51.988;5.854;2023-09-19T06:46:00;100471.81;;;18.00;61.96
70229;BME280;57617;51.988;5.854;2023-09-19T06:48:27;100469.28;;;18.03;61.99
70229;BME280;57617;51.988;5.854;2023-09-19T06:50:54;100465.97;;;18.07;62.20
70229;BME280;57617;51.988;5.854;2023-09-19T06:53:20;100462.91;;;18.08;62.15
70229;BME280;57617;51.988;5.854;2023-09-19T06:55:45;100455.56;;;18.03;62.25
70229;BME280;57617;51.988;5.854;2023-09-19T06:58:12;100452.72;;;18.08;62.24
70229;BME280;57617;51.988;5.854;2023-09-19T07:00:38;100459.25;;;18.13;62.43
70229;BME280;57617;51.988;5.854;2023-09-19T07:03:05;100465.28;;;18.14;62.31
70229;BME280;57617;51.988;5.854;2023-09-19T07:05:34;100467.00;;;18.11;62.87
70229;BME280;57617;51.988;5.854;2023-09-19T07:08:03;100466.38;;;18.13;62.53
70229;BME280;57617;51.988;5.854;2023-09-19T07:10:28;100469.06;;;18.18;62.50
70229;BME280;57617;51.988;5.854;2023-09-19T07:13:04;100470.09;;;18.23;62.67
70229;BME280;57617;51.988;5.854;2023-09-19T07:15:34;100464.97;;;18.16;62.36
70229;BME280;57617;51.988;5.854;2023-09-19T07:18:02;100459.63;;;18.24;62.42
70229;BME280;57617;51.988;5.854;2023-09-19T07:20:27;100471.59;;;18.34;62.65
70229;BME280;57617;51.988;5.854;2023-09-19T07:22:54;100474.41;;;18.28;62.64
70229;BME280;57617;51.988;5.854;2023-09-19T07:25:20;100475.19;;;18.34;62.46
70229;BME280;57617;51.988;5.854;2023-09-19T07:27:46;100473.22;;;18.35;62.68
70229;BME280;57617;51.988;5.854;2023-09-19T07:30:12;100481.19;;;18.36;62.62
70229;BME280;57617;51.988;5.854;2023-09-19T07:32:38;100490.69;;;18.44;62.77
70229;BME280;57617;51.988;5.854;2023-09-19T07:35:04;100477.16;;;18.47;62.69
70229;BME280;57617;51.988;5.854;2023-09-19T07:37:33;100473.06;;;18.45;62.42
70229;BME280;57617;51.988;5.854;2023-09-19T07:39:59;100479.00;;;18.52;62.72
70229;BME280;57617;51.988;5.854;2023-09-19T07:42:26;100478.09;;;18.56;62.55
70229;BME280;57617;51.988;5.854;2023-09-19T07:44:52;100479.63;;;18.62;62.59
70229;BME280;57617;51.988;5.854;2023-09-19T07:47:19;100484.94;;;18.59;62.51
70229;BME280;57617;51.988;5.854;2023-09-19T07:49:47;100471.69;;;18.61;62.42
70229;BME280;57617;51.988;5.854;2023-09-19T07:52:12;100479.84;;;18.66;62.26
70229;BME280;57617;51.988;5.854;2023-09-19T07:54:38;100490.25;;;18.69;62.50
70229;BME280;57617;51.988;5.854;2023-09-19T07:57:06;100493.44;;;18.76;62.61
70229;BME280;57617;51.988;5.854;2023-09-19T07:59:32;100489.47;;;18.82;62.15
70229;BME280;57617;51.988;5.854;2023-09-19T08:01:57;100488.38;;;18.83;62.06
70229;BME280;57617;51.988;5.854;2023-09-19T08:04:23;100500.38;;;18.87;62.36
70229;BME280;57617;51.988;5.854;2023-09-19T08:06:50;100504.16;;;18.91;62.46
70229;BME280;57617;51.988;5.854;2023-09-19T08:09:17;100499.59;;;19.00;62.54
70229;BME280;57617;51.988;5.854;2023-09-19T08:11:46;100491.84;;;19.02;62.02
70229;BME280;57617;51.988;5.854;2023-09-19T08:14:12;100491.84;;;19.02;62.11
70229;BME280;57617;51.988;5.854;2023-09-19T08:16:39;100499.50;;;19.05;62.05
70229;BME280;57617;51.988;5.854;2023-09-19T08:19:05;100487.06;;;19.07;61.60
70229;BME280;57617;51.988;5.854;2023-09-19T08:21:31;100502.06;;;19.01;62.17
70229;BME280;57617;51.988;5.854;2023-09-19T08:23:57;100497.78;;;19.09;61.81
70229;BME280;57617;51.988;5.854;2023-09-19T08:26:22;100498.50;;;19.14;61.98
70229;BME280;57617;51.988;5.854;2023-09-19T08:28:49;100507.78;;;19.18;62.04
70229;BME280;57617;51.988;5.854;2023-09-19T08:31:16;100504.56;;;19.30;61.88
70229;BME280;57617;51.988;5.854;2023-09-19T08:33:43;100498.97;;;19.35;61.58
70229;BME280;57617;51.988;5.854;2023-09-19T08:36:12;100506.28;;;19.39;61.49
70229;BME280;57617;51.988;5.854;2023-09-19T08:38:39;100487.09;;;19.48;61.70
70229;BME280;57617;51.988;5.854;2023-09-19T08:41:08;100489.66;;;19.58;61.71
70229;BME280;57617;51.988;5.854;2023-09-19T08:43:34;100495.69;;;19.60;61.66
70229;BME280;57617;51.988;5.854;2023-09-19T08:48:31;100492.38;;;19.71;61.37
70229;BME280;57617;51.988;5.854;2023-09-19T08:51:17;100484.75;;;19.68;60.47
70229;BME280;57617;51.988;5.854;2023-09-19T08:53:51;100494.22;;;19.76;61.03
70229;BME280;57617;51.988;5.854;2023-09-19T08:56:18;100496.69;;;19.77;61.22
70229;BME280;57617;51.988;5.854;2023-09-19T08:59:03;100482.69;;;19.74;60.84
70229;BME280;57617;51.988;5.854;2023-09-19T09:01:35;100488.09;;;19.79;61.21
70229;BME280;57617;51.988;5.854;2023-09-19T09:04:01;100484.41;;;19.83;60.95
70229;BME280;57617;51.988;5.854;2023-09-19T09:06:27;100503.59;;;19.88;60.75
70229;BME280;57617;51.988;5.854;2023-09-19T09:08:54;100505.44;;;19.93;60.30
70229;BME280;57617;51.988;5.854;2023-09-19T09:11:20;100484.56;;;20.00;60.28
70229;BME280;57617;51.988;5.854;2023-09-19T09:13:46;100482.53;;;20.06;59.96
70229;BME280;57617;51.988;5.854;2023-09-19T09:16:12;100488.44;;;20.13;60.17
70229;BME280;57617;51.988;5.854;2023-09-19T09:18:39;100477.00;;;20.19;59.81
70229;BME280;57617;51.988;5.854;2023-09-19T09:21:05;100479.50;;;20.29;59.59
70229;BME280;57617;51.988;5.854;2023-09-19T09:23:30;100490.84;;;20.50;59.56
70229;BME280;57617;51.988;5.854;2023-09-19T09:25:58;100480.69;;;20.59;59.16
70229;BME280;57617;51.988;5.854;2023-09-19T09:28:28;100491.25;;;20.57;58.90
70229;BME280;57617;51.988;5.854;2023-09-19T09:30:57;100483.44;;;20.59;58.41
70229;BME280;57617;51.988;5.854;2023-09-19T09:33:28;100476.97;;;20.63;58.20
70229;BME280;57617;51.988;5.854;2023-09-19T09:35:54;100487.41;;;20.66;58.35
70229;BME280;57617;51.988;5.854;2023-09-19T09:38:26;100481.06;;;20.66;57.76
70229;BME280;57617;51.988;5.854;2023-09-19T09:40:58;100475.53;;;20.66;57.78
70229;BME280;57617;51.988;5.854;2023-09-19T09:43:37;100465.75;;;20.60;56.33
70229;BME280;57617;51.988;5.854;2023-09-19T09:46:08;100464.84;;;20.64;56.65
70229;BME280;57617;51.988;5.854;2023-09-19T09:48:44;100467.50;;;20.78;56.21
70229;BME280;57617;51.988;5.854;2023-09-19T09:51:31;100470.94;;;20.83;55.53
70229;BME280;57617;51.988;5.854;2023-09-19T09:54:17;100470.94;;;20.83;56.23
70229;BME280;57617;51.988;5.854;2023-09-19T09:59:50;100466.03;;;21.02;55.54
70229;BME280;57617;51.988;5.854;2023-09-19T10:02:17;100473.72;;;21.14;56.19
70229;BME280;57617;51.988;5.854;2023-09-19T10:04:57;100457.34;;;21.26;55.62
70229;BME280;57617;51.988;5.854;2023-09-19T10:07:38;100468.47;;;21.43;55.83
70229;BME280;57617;51.988;5.854;2023-09-19T10:10:07;100470.91;;;21.44;55.45
70229;BME280;57617;51.988;5.854;2023-09-19T10:12:46;100459.38;;;21.51;54.69
70229;BME280;57617;51.988;5.854;2023-09-19T10:15:14;100470.78;;;21.58;55.09
70229;BME280;57617;51.988;5.854;2023-09-19T10:17:42;100441.50;;;21.57;54.79
70229;BME280;57617;51.988;5.854;2023-09-19T10:20:09;100460.13;;;21.73;54.86
70229;BME280;57617;51.988;5.854;2023-09-19T10:22:48;100459.00;;;21.83;55.01
70229;BME280;57617;51.988;5.854;2023-09-19T10:25:25;100451.53;;;21.92;54.37
70229;BME280;57617;51.988;5.854;2023-09-19T10:27:51;100446.31;;;21.99;54.50
70229;BME280;57617;51.988;5.854;2023-09-19T10:30:19;100451.53;;;22.00;54.14
70229;BME280;57617;51.988;5.854;2023-09-19T10:32:47;100456.25;;;22.00;53.73
70229;BME280;57617;51.988;5.854;2023-09-19T10:35:17;100455.44;;;21.99;53.62
70229;BME280;57617;51.988;5.854;2023-09-19T10:37:44;100451.34;;;22.14;53.52
70229;BME280;57617;51.988;5.854;2023-09-19T10:40:15;100452.03;;;22.19;53.64
70229;BME280;57617;51.988;5.854;2023-09-19T10:42:42;100452.19;;;22.23;53.31
70229;BME280;57617;51.988;5.854;2023-09-19T10:45:09;100454.78;;;22.19;53.45
70229;BME280;57617;51.988;5.854;2023-09-19T10:47:38;100463.72;;;22.16;53.14
70229;BME280;57617;51.988;5.854;2023-09-19T10:50:06;100439.66;;;22.00;53.29
70229;BME280;57617;51.988;5.854;2023-09-19T10:52:31;100452.97;;;22.06;53.63
70229;BME280;57617;51.988;5.854;2023-09-19T10:55:00;100462.75;;;22.04;53.57
70229;BME280;57617;51.988;5.854;2023-09-19T10:57:26;100453.81;;;21.98;53.45
70229;BME280;57617;51.988;5.854;2023-09-19T11:00:08;100440.63;;;22.04;53.75
70229;BME280;57617;51.988;5.854;2023-09-19T11:03:21;100435.06;;;22.04;53.44
70229;BME280;57617;51.988;5.854;2023-09-19T11:06:01;100427.94;;;22.03;53.35
70229;BME280;57617;51.988;5.854;2023-09-19T11:08:50;100417.84;;;21.98;53.74
70229;BME280;57617;51.988;5.854;2023-09-19T11:11:47;100416.38;;;21.84;53.58
70229;BME280;57617;51.988;5.854;2023-09-19T11:30:31;100408.41;;;21.91;53.67
70229;BME280;57617;51.988;5.854;2023-09-19T11:46:26;100394.59;;;21.91;53.47
70229;BME280;57617;51.988;5.854;2023-09-19T11:48:54;100383.00;;;21.89;53.10
70229;BME280;57617;51.988;5.854;2023-09-19T11:51:24;100395.56;;;21.95;53.03
70229;BME280;57617;51.988;5.854;2023-09-19T11:53:56;100391.16;;;22.11;52.91
70229;BME280;57617;51.988;5.854;2023-09-19T11:56:26;100390.97;;;22.24;52.93
70229;BME280;57617;51.988;5.854;2023-09-19T11:58:57;100394.56;;;22.33;52.93
70229;BME280;57617;51.988;5.854;2023-09-19T12:01:30;100399.25;;;22.33;52.51
70229;BME280;57617;51.988;5.854;2023-09-19T12:03:58;100392.56;;;22.34;52.44
70229;BME280;57617;51.988;5.854;2023-09-19T12:06:25;100382.00;;;22.36;51.93
70229;BME280;57617;51.988;5.854;2023-09-19T12:08:51;100382.94;;;22.40;52.30
70229;BME280;57617;51.988;5.854;2023-09-19T12:11:19;100389.00;;;22.42;52.27
70229;BME280;57617;51.988;5.854;2023-09-19T12:13:46;100377.88;;;22.59;51.93
70229;BME280;57617;51.988;5.854;2023-09-19T12:16:15;100382.13;;;22.56;51.69
70229;BME280;57617;51.988;5.854;2023-09-19T12:18:41;100380.50;;;22.55;51.43
70229;BME280;57617;51.988;5.854;2023-09-19T12:21:29;100365.81;;;22.63;50.93
70229;BME280;57617;51.988;5.854;2023-09-19T12:26:41;100373.56;;;22.87;51.17
70229;BME280;57617;51.988;5.854;2023-09-19T12:29:15;100368.59;;;23.01;50.25
70229;BME280;57617;51.988;5.854;2023-09-19T12:31:58;100383.59;;;23.00;50.04
70229;BME280;57617;51.988;5.854;2023-09-19T12:34:28;100385.75;;;22.94;49.82
70229;BME280;57617;51.988;5.854;2023-09-19T12:37:13;100390.81;;;22.92;50.04
70229;BME280;57617;51.988;5.854;2023-09-19T12:39:48;100381.75;;;22.75;49.95
70229;BME280;57617;51.988;5.854;2023-09-19T12:42:15;100373.97;;;22.60;50.14
70229;BME280;57617;51.988;5.854;2023-09-19T12:44:42;100381.97;;;22.61;50.20
70229;BME280;57617;51.988;5.854;2023-09-19T12:47:13;100382.81;;;22.53;50.18
70229;BME280;57617;51.988;5.854;2023-09-19T12:52:39;100384.59;;;22.49;50.85
70229;BME280;57617;51.988;5.854;2023-09-19T12:55:05;100377.44;;;22.48;50.99
70229;BME280;57617;51.988;5.854;2023-09-19T12:57:32;100373.53;;;22.41;50.72
70229;BME280;57617;51.988;5.854;2023-09-19T13:00:01;100377.41;;;22.40;50.46
70229;BME280;57617;51.988;5.854;2023-09-19T13:02:26;100369.00;;;22.28;50.79
70229;BME280;57617;51.988;5.854;2023-09-19T13:04:54;100381.69;;;22.29;50.72
70229;BME280;57617;51.988;5.854;2023-09-19T13:10:10;100375.00;;;22.30;50.97
70229;BME280;57617;51.988;5.854;2023-09-19T13:12:37;100363.44;;;22.28;51.13
70229;BME280;57617;51.988;5.854;2023-09-19T13:15:10;100373.06;;;22.30;51.16
70229;BME280;57617;51.988;5.854;2023-09-19T13:17:48;100378.44;;;22.27;51.45
70229;BME280;57617;51.988;5.854;2023-09-19T13:22:55;100373.69;;;22.36;51.33
70229;BME280;57617;51.988;5.854;2023-09-19T13:25:25;100366.25;;;22.19;51.22
70229;BME280;57617;51.988;5.854;2023-09-19T13:27:55;100378.13;;;22.28;51.40
70229;BME280;57617;51.988;5.854;2023-09-19T13:30:23;100381.34;;;22.30;51.34
70229;BME280;57617;51.988;5.854;2023-09-19T13:32:50;100384.13;;;22.30;51.51
70229;BME280;57617;51.988;5.854;2023-09-19T13:35:16;100392.13;;;22.23;51.58
70229;BME280;57617;51.988;5.854;2023-09-19T13:37:42;100391.78;;;22.16;51.06
70229;BME280;57617;51.988;5.854;2023-09-19T13:40:12;100372.78;;;22.15;51.34
70229;BME280;57617;51.988;5.854;2023-09-19T13:42:38;100378.78;;;22.17;51.45
70229;BME280;57617;51.988;5.854;2023-09-19T13:45:04;100371.97;;;22.06;51.71
70229;BME280;57617;51.988;5.854;2023-09-19T13:47:30;100382.00;;;22.19;51.65
70229;BME280;57617;51.988;5.854;2023-09-19T13:49:55;100373.56;;;22.15;51.49
70229;BME280;57617;51.988;5.854;2023-09-19T13:52:21;100370.47;;;22.17;51.55